Time;durP1;ratioP1;P1;durP2;ratioP2;P2;SDS_P1;SDS_P2;PMS_P1;PMS_P2;Temp;Humidity;BMP_temperature;BMP_pressure;BME280_temperature;BME280_humidity;BME280_pressure;Samples;Min_cycle;Max_cycle;Signal;HPM_P1;HPM_P2
2023/12/24 00:00:09;;;;;;;14.10;2.43;;;;;;;;;;6306262;22;20174;-76
2023/12/24 00:02:36;;;;;;;14.13;3.00;;;;;;;;;;6306263;22;20170;-75
2023/12/24 00:05:03;;;;;;;11.73;2.63;;;;;;;;;;6306321;22;20197;-76
2023/12/24 00:07:31;;;;;;;13.47;2.90;;;;;;;;;;6305789;22;20193;-75
2023/12/24 00:09:58;;;;;;;13.50;2.70;;;;;;;;;;6306319;22;20204;-76
2023/12/24 00:12:26;;;;;;;14.60;2.43;;;;;;;;;;6305888;22;20236;-76
2023/12/24 00:14:54;;;;;;;14.87;2.50;;;;;;;;;;6306309;22;20194;-76
2023/12/24 00:17:21;;;;;;;11.03;2.33;;;;;;;;;;6306386;22;20170;-76
2023/12/24 00:19:48;;;;;;;15.43;2.93;;;;;;;;;;6306099;22;20252;-76
2023/12/24 00:22:15;;;;;;;17.57;3.20;;;;;;;;;;6306031;22;20193;-77
2023/12/24 00:24:44;;;;;;;9.73;2.80;;;;;;;;;;6306419;22;20196;-76
2023/12/24 00:27:11;;;;;;;11.30;2.67;;;;;;;;;;6306505;22;20170;-76
2023/12/24 00:29:39;;;;;;;12.83;2.53;;;;;;;;;;6305214;22;20636;-75
2023/12/24 00:32:07;;;;;;;15.57;2.90;;;;;;;;;;6306060;22;20194;-76
2023/12/24 00:34:34;;;;;;;13.37;2.73;;;;;;;;;;6306140;22;20178;-77
2023/12/24 00:37:01;;;;;;;16.57;3.00;;;;;;;;;;6305524;22;20208;-76
2023/12/24 00:39:28;;;;;;;13.57;2.80;;;;;;;;;;6305859;22;20201;-76
2023/12/24 00:41:55;;;;;;;12.37;3.40;;;;;;;;;;6305820;22;20212;-76
2023/12/24 00:44:22;;;;;;;12.17;3.20;;;;;;;;;;6306204;22;20197;-76
2023/12/24 00:46:51;;;;;;;19.60;3.87;;;;;;;;;;6306115;22;20636;-76
2023/12/24 00:49:18;;;;;;;16.57;3.90;;;;;;;;;;6306166;22;20177;-76
2023/12/24 00:51:45;;;;;;;12.97;3.33;;;;;;;;;;6305446;22;20603;-75
2023/12/24 00:54:13;;;;;;;12.87;3.10;;;;;;;;;;6306043;22;20223;-75
2023/12/24 00:56:40;;;;;;;15.03;2.67;;;;;;;;;;6305840;22;20289;-76
2023/12/24 00:59:07;;;;;;;16.27;3.10;;;;;;;;;;6305610;22;20170;-75
2023/12/24 01:01:35;;;;;;;12.37;3.20;;;;;;;;;;6305362;22;20194;-77
2023/12/24 01:04:03;;;;;;;15.43;3.17;;;;;;;;;;6305374;22;20177;-76
2023/12/24 01:06:30;;;;;;;15.73;3.30;;;;;;;;;;6305739;22;20208;-75
2023/12/24 01:08:57;;;;;;;14.20;2.90;;;;;;;;;;6305415;22;20679;-76
2023/12/24 01:11:25;;;;;;;15.73;3.20;;;;;;;;;;6305229;22;20633;-76
2023/12/24 01:13:52;;;;;;;17.77;3.10;;;;;;;;;;6305606;22;20646;-76
2023/12/24 01:16:19;;;;;;;15.07;3.13;;;;;;;;;;6306178;22;20214;-76
2023/12/24 01:18:47;;;;;;;17.03;3.33;;;;;;;;;;6304789;22;20546;-76
2023/12/24 01:21:16;;;;;;;14.10;2.83;;;;;;;;;;6305161;22;20173;-76
2023/12/24 01:23:43;;;;;;;12.77;2.23;;;;;;;;;;6305463;22;20204;-76
2023/12/24 01:26:10;;;;;;;15.00;3.10;;;;;;;;;;6305522;22;20248;-75
2023/12/24 01:28:37;;;;;;;15.33;3.30;;;;;;;;;;6305290;22;20170;-75
2023/12/24 01:31:04;;;;;;;18.47;3.00;;;;;;;;;;6305928;22;20252;-76
2023/12/24 01:33:32;;;;;;;11.87;2.50;;;;;;;;;;6305017;22;20229;-77
2023/12/24 01:35:59;;;;;;;19.10;3.30;;;;;;;;;;6304978;22;20193;-76
2023/12/24 01:38:27;;;;;;;14.60;3.30;;;;;;;;;;6305159;22;20169;-76
2023/12/24 01:40:54;;;;;;;12.53;2.60;;;;;;;;;;6305585;22;20194;-78
2023/12/24 01:43:22;;;;;;;13.10;2.60;;;;;;;;;;6305650;22;20170;-77
2023/12/24 01:45:49;;;;;;;13.70;2.70;;;;;;;;;;6305487;22;20249;-77
2023/12/24 01:48:16;;;;;;;13.40;3.10;;;;;;;;;;6304797;22;20206;-78
2023/12/24 01:50:45;;;;;;;20.83;2.97;;;;;;;;;;6305304;22;20662;-78
2023/12/24 01:53:13;;;;;;;14.27;2.63;;;;;;;;;;6305081;22;20284;-76
2023/12/24 01:55:41;;;;;;;10.33;2.67;;;;;;;;;;6305415;22;20177;-77
2023/12/24 01:58:09;;;;;;;11.97;2.63;;;;;;;;;;6305363;22;20498;-77
2023/12/24 02:00:36;;;;;;;11.57;2.70;;;;;;;;;;6305540;22;20197;-78
2023/12/24 02:03:04;;;;;;;15.80;3.27;;;;;;;;;;6304900;22;20169;-78
2023/12/24 02:05:31;;;;;;;11.47;2.93;;;;;;;;;;6305175;22;20231;-78
2023/12/24 02:07:59;;;;;;;13.70;3.00;;;;;;;;;;6304984;22;20702;-78
2023/12/24 02:10:26;;;;;;;15.60;2.80;;;;;;;;;;6305645;22;20631;-78
2023/12/24 02:12:55;;;;;;;19.63;3.10;;;;;;;;;;6305338;22;20288;-78
2023/12/24 02:15:22;;;;;;;12.77;2.77;;;;;;;;;;6305476;22;20174;-78
2023/12/24 02:17:49;;;;;;;16.23;3.47;;;;;;;;;;6304736;22;20248;-78
2023/12/24 02:20:19;;;;;;;15.67;2.93;;;;;;;;;;6305077;22;20569;-77
2023/12/24 02:22:48;;;;;;;12.73;2.40;;;;;;;;;;6305238;22;20170;-77
2023/12/24 02:25:15;;;;;;;11.10;2.50;;;;;;;;;;6305183;22;20193;-78
2023/12/24 02:27:47;;;;;;;12.57;3.07;;;;;;;;;;6304768;22;20248;-78
2023/12/24 02:30:31;;;;;;;16.10;3.33;;;;;;;;;;6305532;22;20245;-77
2023/12/24 02:32:59;;;;;;;12.27;3.10;;;;;;;;;;6304757;22;20280;-78
2023/12/24 02:35:29;;;;;;;16.83;3.07;;;;;;;;;;6304723;22;20635;-77
2023/12/24 02:37:58;;;;;;;18.70;3.07;;;;;;;;;;6305251;22;20317;-77
2023/12/24 02:40:25;;;;;;;15.97;3.10;;;;;;;;;;6304664;22;20193;-78
2023/12/24 02:42:52;;;;;;;16.43;3.07;;;;;;;;;;6304674;22;20174;-77
2023/12/24 02:45:20;;;;;;;17.57;3.50;;;;;;;;;;6305131;22;20173;-77
2023/12/24 02:47:47;;;;;;;13.93;3.23;;;;;;;;;;6304222;22;20190;-77
2023/12/24 02:50:16;;;;;;;16.77;3.73;;;;;;;;;;6305030;22;20281;-78
2023/12/24 02:52:45;;;;;;;16.30;3.30;;;;;;;;;;6304849;22;20198;-77
2023/12/24 02:55:14;;;;;;;19.13;3.37;;;;;;;;;;6306419;22;20219;-78
2023/12/24 02:57:42;;;;;;;13.80;3.53;;;;;;;;;;6306792;22;20166;-77
2023/12/24 03:00:09;;;;;;;16.93;3.97;;;;;;;;;;6306245;22;20249;-79
2023/12/24 03:02:37;;;;;;;12.47;3.33;;;;;;;;;;6306388;22;20198;-77
2023/12/24 03:05:04;;;;;;;13.17;3.57;;;;;;;;;;6306197;22;20170;-77
2023/12/24 03:07:32;;;;;;;11.60;3.03;;;;;;;;;;6307357;22;20217;-77
2023/12/24 03:09:59;;;;;;;10.67;3.20;;;;;;;;;;6306779;22;20186;-78
2023/12/24 03:12:28;;;;;;;17.27;3.00;;;;;;;;;;6306688;22;20217;-77
2023/12/24 03:14:55;;;;;;;18.73;3.57;;;;;;;;;;6306759;22;20254;-77
2023/12/24 03:17:22;;;;;;;18.70;3.63;;;;;;;;;;6306197;22;20170;-77
2023/12/24 03:19:49;;;;;;;17.23;2.70;;;;;;;;;;6305295;22;20193;-77
2023/12/24 03:22:16;;;;;;;13.17;3.00;;;;;;;;;;6306604;22;20193;-77
2023/12/24 03:24:44;;;;;;;18.07;2.93;;;;;;;;;;6306511;22;20202;-77
2023/12/24 03:27:11;;;;;;;13.90;2.70;;;;;;;;;;6306688;22;20166;-76
2023/12/24 03:29:39;;;;;;;17.60;3.03;;;;;;;;;;6306405;22;20272;-76
2023/12/24 03:32:07;;;;;;;19.83;3.67;;;;;;;;;;6306817;22;20244;-78
2023/12/24 03:34:34;;;;;;;15.07;2.93;;;;;;;;;;6305932;22;20300;-78
2023/12/24 03:37:01;;;;;;;18.00;3.23;;;;;;;;;;6305671;22;20249;-77
2023/12/24 03:39:28;;;;;;;18.43;3.50;;;;;;;;;;6306099;22;20245;-76
2023/12/24 03:41:55;;;;;;;13.03;2.60;;;;;;;;;;6306154;22;20223;-77
2023/12/24 03:44:22;;;;;;;17.83;2.77;;;;;;;;;;6306064;22;20173;-77
2023/12/24 03:46:51;;;;;;;19.20;3.27;;;;;;;;;;6306586;22;20170;-78
2023/12/24 03:49:20;;;;;;;15.23;3.00;;;;;;;;;;6306534;22;20189;-77
2023/12/24 03:51:48;;;;;;;18.67;3.50;;;;;;;;;;6306153;22;20170;-78
2023/12/24 03:54:16;;;;;;;17.53;3.30;;;;;;;;;;6306422;22;20208;-78
2023/12/24 03:56:43;;;;;;;19.50;2.97;;;;;;;;;;6306207;22;20170;-77
2023/12/24 03:59:10;;;;;;;14.47;2.80;;;;;;;;;;6306158;22;20193;-77
2023/12/24 04:01:38;;;;;;;13.40;2.70;;;;;;;;;;6305922;22;20611;-77
2023/12/24 04:04:07;;;;;;;17.13;2.73;;;;;;;;;;6306432;22;20248;-77
2023/12/24 04:06:34;;;;;;;14.57;2.40;;;;;;;;;;6305711;22;20206;-77
2023/12/24 04:09:01;;;;;;;15.93;3.00;;;;;;;;;;6305991;22;20216;-76
2023/12/24 04:11:28;;;;;;;15.87;2.90;;;;;;;;;;6306011;22;20628;-77
2023/12/24 04:13:55;;;;;;;18.70;3.17;;;;;;;;;;6305354;22;20201;-78
2023/12/24 04:16:23;;;;;;;13.40;2.67;;;;;;;;;;6306529;22;20166;-77
2023/12/24 04:18:50;;;;;;;18.37;3.63;;;;;;;;;;6305993;22;20170;-77
2023/12/24 04:21:19;;;;;;;21.00;3.00;;;;;;;;;;6305778;22;20197;-77
2023/12/24 04:23:46;;;;;;;16.17;3.27;;;;;;;;;;6305863;22;20217;-77
2023/12/24 04:26:13;;;;;;;21.13;3.30;;;;;;;;;;6306286;22;20169;-77
2023/12/24 04:28:41;;;;;;;14.00;3.23;;;;;;;;;;6306209;22;20256;-77
2023/12/24 04:31:08;;;;;;;15.33;3.83;;;;;;;;;;6305809;22;20257;-77
2023/12/24 04:33:35;;;;;;;20.00;2.87;;;;;;;;;;6305710;22;20595;-77
2023/12/24 04:36:02;;;;;;;16.63;3.20;;;;;;;;;;6305534;22;20169;-78
2023/12/24 04:38:31;;;;;;;17.10;3.03;;;;;;;;;;6305832;22;20575;-77
2023/12/24 04:40:58;;;;;;;21.37;4.30;;;;;;;;;;6305968;22;20528;-77
2023/12/24 04:43:25;;;;;;;18.33;3.20;;;;;;;;;;6306094;22;20197;-78
2023/12/24 04:45:52;;;;;;;24.77;3.00;;;;;;;;;;6305134;22;20167;-77
2023/12/24 04:48:19;;;;;;;20.57;3.17;;;;;;;;;;6306086;22;20173;-77
2023/12/24 04:50:47;;;;;;;18.17;3.10;;;;;;;;;;6305942;22;20170;-77
2023/12/24 04:53:14;;;;;;;19.20;3.83;;;;;;;;;;6305305;22;20233;-78
2023/12/24 04:55:44;;;;;;;15.80;3.50;;;;;;;;;;6305863;22;20173;-77
2023/12/24 04:58:11;;;;;;;17.97;3.10;;;;;;;;;;6305618;22;20170;-77
2023/12/24 05:00:38;;;;;;;19.33;3.27;;;;;;;;;;6305095;22;20236;-77
2023/12/24 05:03:05;;;;;;;22.00;3.37;;;;;;;;;;6305363;22;20208;-77
2023/12/24 05:05:32;;;;;;;17.57;3.50;;;;;;;;;;6305847;22;20575;-78
2023/12/24 05:08:00;;;;;;;17.27;4.00;;;;;;;;;;6305626;22;20217;-76
2023/12/24 05:10:28;;;;;;;16.53;4.07;;;;;;;;;;6304709;22;20625;-77
2023/12/24 05:12:56;;;;;;;22.17;4.10;;;;;;;;;;6305878;22;20170;-76
2023/12/24 05:15:23;;;;;;;19.83;3.10;;;;;;;;;;6305508;22;20647;-77
2023/12/24 05:17:50;;;;;;;18.37;3.70;;;;;;;;;;6305116;22;20635;-77
2023/12/24 05:20:18;;;;;;;17.77;3.37;;;;;;;;;;6305157;22;20201;-78
2023/12/24 05:22:45;;;;;;;17.60;3.40;;;;;;;;;;6305872;22;20198;-77
2023/12/24 05:25:12;;;;;;;22.43;3.73;;;;;;;;;;6305005;22;20205;-78
2023/12/24 05:27:39;;;;;;;22.63;3.77;;;;;;;;;;6305661;22;20205;-79
2023/12/24 05:30:08;;;;;;;20.30;3.40;;;;;;;;;;6305388;22;20201;-77
2023/12/24 05:32:36;;;;;;;21.93;3.43;;;;;;;;;;6305276;22;20193;-77
2023/12/24 05:35:03;;;;;;;17.80;4.43;;;;;;;;;;6305469;22;20244;-77
2023/12/24 05:37:30;;;;;;;16.67;3.23;;;;;;;;;;6306244;22;20169;-78
2023/12/24 05:39:57;;;;;;;22.90;3.20;;;;;;;;;;6304691;22;20212;-76
2023/12/24 05:42:24;;;;;;;20.80;3.50;;;;;;;;;;6305538;22;20193;-77
2023/12/24 05:44:51;;;;;;;18.47;3.40;;;;;;;;;;6305720;22;20196;-78
2023/12/24 05:47:20;;;;;;;17.33;3.73;;;;;;;;;;6305914;22;20257;-77
2023/12/24 05:49:47;;;;;;;24.10;3.60;;;;;;;;;;6304438;22;20204;-77
2023/12/24 05:52:14;;;;;;;15.77;2.87;;;;;;;;;;6305084;22;20257;-77
2023/12/24 05:54:41;;;;;;;20.30;3.83;;;;;;;;;;6304574;22;20229;-77
2023/12/24 05:57:09;;;;;;;22.67;3.83;;;;;;;;;;6305441;22;20169;-77
2023/12/24 05:59:36;;;;;;;21.63;3.70;;;;;;;;;;6304911;22;20208;-77
2023/12/24 06:02:03;;;;;;;19.23;3.63;;;;;;;;;;6304437;22;20748;-77
2023/12/24 06:04:31;;;;;;;20.97;4.00;;;;;;;;;;6304909;22;20198;-77
2023/12/24 06:07:01;;;;;;;22.17;3.60;;;;;;;;;;6305440;22;20575;-77
2023/12/24 06:09:28;;;;;;;22.20;3.63;;;;;;;;;;6305226;22;20197;-77
2023/12/24 06:11:56;;;;;;;19.40;3.57;;;;;;;;;;6305001;22;20172;-77
2023/12/24 06:14:23;;;;;;;26.83;3.60;;;;;;;;;;6305289;22;20604;-78
2023/12/24 06:16:50;;;;;;;18.77;4.17;;;;;;;;;;6305152;22;20198;-77
2023/12/24 06:19:17;;;;;;;23.20;4.13;;;;;;;;;;6305222;22;20205;-76
2023/12/24 06:21:46;;;;;;;17.03;3.13;;;;;;;;;;6305432;22;20173;-76
2023/12/24 06:24:13;;;;;;;20.37;3.70;;;;;;;;;;6305116;22;20169;-78
2023/12/24 06:26:40;;;;;;;21.93;3.53;;;;;;;;;;6305123;22;20256;-76
2023/12/24 06:29:07;;;;;;;18.37;3.53;;;;;;;;;;6305706;22;20197;-78
2023/12/24 06:31:34;;;;;;;25.53;3.87;;;;;;;;;;6307647;22;20208;-78
2023/12/24 06:34:02;;;;;;;19.97;3.20;;;;;;;;;;6306388;22;20262;-78
2023/12/24 06:36:29;;;;;;;18.40;3.20;;;;;;;;;;6306630;22;20212;-77
2023/12/24 06:38:57;;;;;;;24.03;4.97;;;;;;;;;;6307165;22;20197;-78
2023/12/24 06:41:24;;;;;;;19.43;3.73;;;;;;;;;;6307071;22;20193;-77
2023/12/24 06:43:52;;;;;;;24.03;4.13;;;;;;;;;;6306738;22;20260;-77
2023/12/24 06:46:19;;;;;;;23.73;4.03;;;;;;;;;;6306595;22;20249;-78
2023/12/24 06:48:46;;;;;;;21.03;4.00;;;;;;;;;;6306770;22;20169;-76
2023/12/24 06:51:13;;;;;;;25.53;4.30;;;;;;;;;;6306809;22;20722;-77
2023/12/24 06:53:40;;;;;;;24.63;4.20;;;;;;;;;;6306689;22;20284;-77
2023/12/24 06:56:09;;;;;;;19.33;4.43;;;;;;;;;;6307194;22;20166;-77
2023/12/24 06:58:36;;;;;;;23.30;3.73;;;;;;;;;;6307470;22;20200;-77
2023/12/24 07:01:03;;;;;;;21.83;4.10;;;;;;;;;;6306636;22;20603;-77
2023/12/24 07:03:30;;;;;;;20.40;4.33;;;;;;;;;;6307068;22;20198;-77
2023/12/24 07:05:58;;;;;;;20.27;4.07;;;;;;;;;;6306570;22;20559;-78
2023/12/24 07:08:25;;;;;;;24.20;4.23;;;;;;;;;;6307157;22;20166;-77
2023/12/24 07:10:52;;;;;;;24.50;3.93;;;;;;;;;;6306976;22;20189;-77
2023/12/24 07:13:21;;;;;;;26.27;4.77;;;;;;;;;;6306410;22;20730;-78
2023/12/24 07:15:48;;;;;;;20.07;3.70;;;;;;;;;;6306860;22;20191;-77
2023/12/24 07:18:15;;;;;;;23.10;3.93;;;;;;;;;;6306465;22;20174;-76
2023/12/24 07:20:43;;;;;;;20.10;3.83;;;;;;;;;;6306680;22;20197;-77
2023/12/24 07:23:10;;;;;;;23.87;4.40;;;;;;;;;;6306021;22;20193;-77
2023/12/24 07:25:37;;;;;;;23.93;4.37;;;;;;;;;;6306595;22;20227;-77
2023/12/24 07:28:04;;;;;;;23.07;4.30;;;;;;;;;;6307041;22;20249;-77
2023/12/24 07:30:33;;;;;;;25.60;4.40;;;;;;;;;;6306392;22;20249;-78
2023/12/24 07:33:00;;;;;;;20.10;3.67;;;;;;;;;;6306638;22;20534;-78
2023/12/24 07:35:27;;;;;;;17.93;4.27;;;;;;;;;;6306336;22;20584;-77
2023/12/24 07:37:54;;;;;;;19.13;3.90;;;;;;;;;;6307160;22;20571;-77
2023/12/24 07:40:21;;;;;;;18.27;3.53;;;;;;;;;;6305397;22;20249;-77
2023/12/24 07:42:48;;;;;;;18.40;3.53;;;;;;;;;;6306841;22;20256;-76
2023/12/24 07:45:16;;;;;;;21.90;4.07;;;;;;;;;;6306757;22;20170;-78
2023/12/24 07:47:45;;;;;;;28.80;3.87;;;;;;;;;;6306122;22;20169;-78
2023/12/24 07:50:11;;;;;;;23.53;5.80;;;;;;;;;;6306022;22;20174;-78
2023/12/24 07:52:38;;;;;;;28.03;7.30;;;;;;;;;;6306706;22;20204;-77
2023/12/24 07:55:06;;;;;;;32.70;7.90;;;;;;;;;;6304413;22;20201;-77
2023/12/24 07:57:33;;;;;;;30.03;6.90;;;;;;;;;;6306117;22;20248;-78
2023/12/24 08:00:00;;;;;;;26.40;6.00;;;;;;;;;;6306856;22;20245;-77
2023/12/24 08:02:27;;;;;;;32.37;4.73;;;;;;;;;;6306772;22;20169;-76
2023/12/24 08:04:56;;;;;;;22.37;4.83;;;;;;;;;;6305881;22;20603;-78
2023/12/24 08:07:23;;;;;;;21.37;4.83;;;;;;;;;;6306018;22;20170;-77
2023/12/24 08:09:51;;;;;;;27.90;4.90;;;;;;;;;;6306048;22;20199;-78
2023/12/24 08:12:18;;;;;;;20.37;4.27;;;;;;;;;;6306230;22;20176;-77
2023/12/24 08:14:45;;;;;;;23.57;3.77;;;;;;;;;;6306334;22;20243;-77
2023/12/24 08:17:13;;;;;;;23.87;4.50;;;;;;;;;;6305983;22;20707;-76
2023/12/24 08:19:40;;;;;;;21.27;4.23;;;;;;;;;;6306293;22;20170;-77
2023/12/24 08:22:11;;;;;;;25.57;4.23;;;;;;;;;;6306248;22;20198;-77
2023/12/24 08:24:38;;;;;;;24.73;4.43;;;;;;;;;;6305780;22;20174;-78
2023/12/24 08:27:06;;;;;;;24.10;4.60;;;;;;;;;;6305856;22;20172;-76
2023/12/24 08:29:34;;;;;;;23.93;4.00;;;;;;;;;;6306478;22;20227;-78
2023/12/24 08:32:01;;;;;;;19.67;3.90;;;;;;;;;;6306458;22;20162;-77
2023/12/24 08:34:28;;;;;;;23.20;3.97;;;;;;;;;;6304814;22;20512;-77
2023/12/24 08:36:56;;;;;;;24.47;4.77;;;;;;;;;;6305847;22;20643;-77
2023/12/24 08:39:24;;;;;;;18.37;3.67;;;;;;;;;;6304699;22;20174;-76
2023/12/24 08:41:51;;;;;;;24.97;4.13;;;;;;;;;;6306470;22;20172;-77
2023/12/24 08:44:19;;;;;;;15.40;3.50;;;;;;;;;;6306014;22;20206;-77
2023/12/24 08:46:48;;;;;;;13.97;3.87;;;;;;;;;;6305583;22;20656;-78
2023/12/24 08:49:15;;;;;;;15.60;3.50;;;;;;;;;;6305244;22;20248;-78
2023/12/24 08:51:43;;;;;;;24.77;3.87;;;;;;;;;;6305478;22;20253;-77
2023/12/24 08:54:10;;;;;;;24.60;4.63;;;;;;;;;;6306160;22;20190;-77
2023/12/24 08:56:38;;;;;;;17.07;3.80;;;;;;;;;;6305345;22;20205;-78
2023/12/24 08:59:08;;;;;;;21.37;4.00;;;;;;;;;;6306021;22;20515;-78
2023/12/24 09:01:35;;;;;;;20.13;3.63;;;;;;;;;;6305379;22;20222;-77
2023/12/24 09:04:03;;;;;;;21.63;4.30;;;;;;;;;;6305353;22;20248;-78
2023/12/24 09:06:30;;;;;;;17.50;3.43;;;;;;;;;;6305900;22;20220;-76
2023/12/24 09:08:57;;;;;;;17.43;4.10;;;;;;;;;;6305658;22;20253;-77
2023/12/24 09:11:24;;;;;;;18.67;4.00;;;;;;;;;;6305601;22;20544;-77
2023/12/24 09:13:53;;;;;;;19.48;4.15;;;;;;;;;;6305743;22;20166;-77
2023/12/24 09:16:20;;;;;;;18.27;3.73;;;;;;;;;;6305916;22;20288;-77
2023/12/24 09:18:47;;;;;;;19.07;3.50;;;;;;;;;;6305496;22;20266;-77
2023/12/24 09:21:14;;;;;;;16.63;3.50;;;;;;;;;;6305581;22;20249;-76
2023/12/24 09:23:42;;;;;;;21.80;3.63;;;;;;;;;;6305518;22;20204;-77
2023/12/24 09:26:09;;;;;;;15.60;3.50;;;;;;;;;;6305989;22;20174;-76
2023/12/24 09:28:36;;;;;;;17.87;4.27;;;;;;;;;;6305585;22;20174;-75
2023/12/24 09:31:05;;;;;;;21.20;3.50;;;;;;;;;;6305484;22;20205;-76
2023/12/24 09:33:32;;;;;;;20.93;4.40;;;;;;;;;;6305270;22;20170;-75
2023/12/24 09:35:59;;;;;;;19.53;3.37;;;;;;;;;;6305404;22;20225;-76
2023/12/24 09:38:29;;;;;;;15.37;3.37;;;;;;;;;;6305160;22;20715;-77
2023/12/24 09:40:56;;;;;;;16.57;4.07;;;;;;;;;;6305308;22;20664;-78
2023/12/24 09:43:24;;;;;;;11.60;3.00;;;;;;;;;;6305220;22;20173;-76
2023/12/24 09:45:52;;;;;;;17.20;3.37;;;;;;;;;;6305004;22;20174;-77
2023/12/24 09:48:20;;;;;;;14.53;3.30;;;;;;;;;;6302352;22;20201;-76
2023/12/24 09:50:47;;;;;;;18.40;3.43;;;;;;;;;;6303643;22;20264;-77
2023/12/24 09:53:16;;;;;;;18.93;3.40;;;;;;;;;;6304771;22;20184;-76
2023/12/24 09:55:43;;;;;;;20.60;4.57;;;;;;;;;;6304304;22;20284;-76
2023/12/24 09:58:10;;;;;;;21.30;3.47;;;;;;;;;;6305129;22;20204;-77
2023/12/24 10:00:37;;;;;;;20.17;3.97;;;;;;;;;;6304448;22;20277;-77
2023/12/24 10:03:05;;;;;;;20.83;3.43;;;;;;;;;;6301503;22;20174;-77
2023/12/24 10:05:33;;;;;;;21.93;3.37;;;;;;;;;;6304888;22;20170;-77
2023/12/24 10:08:02;;;;;;;13.77;3.50;;;;;;;;;;6304798;22;20189;-77
2023/12/24 10:10:30;;;;;;;16.80;3.17;;;;;;;;;;6304872;22;20260;-77
2023/12/24 10:13:07;;;;;;;21.80;3.67;;;;;;;;;;6304542;22;20165;-77
2023/12/24 10:15:38;;;;;;;16.67;4.10;;;;;;;;;;6304490;22;20253;-77
2023/12/24 10:18:18;;;;;;;17.87;3.60;;;;;;;;;;6305157;22;20173;-77
2023/12/24 10:20:51;;;;;;;21.03;3.50;;;;;;;;;;6303312;22;20169;-76
2023/12/24 10:23:21;;;;;;;17.07;3.20;;;;;;;;;;6304073;22;20197;-76
2023/12/24 10:26:01;;;;;;;19.07;4.13;;;;;;;;;;6302274;22;20166;-77
2023/12/24 10:28:28;;;;;;;16.80;3.70;;;;;;;;;;6304188;22;20169;-77
2023/12/24 10:31:05;;;;;;;16.63;3.67;;;;;;;;;;6300585;22;20261;-78
2023/12/24 10:33:33;;;;;;;24.03;4.80;;;;;;;;;;6304436;22;20635;-76
2023/12/24 10:36:01;;;;;;;22.37;3.97;;;;;;;;;;6304342;22;20786;-77
2023/12/24 10:38:28;;;;;;;23.00;4.17;;;;;;;;;;6303990;22;20252;-77
2023/12/24 10:40:56;;;;;;;17.60;3.90;;;;;;;;;;6304498;22;20174;-76
2023/12/24 10:43:23;;;;;;;18.93;3.50;;;;;;;;;;6303741;22;20497;-77
2023/12/24 10:45:50;;;;;;;16.93;4.00;;;;;;;;;;6302405;22;20632;-77
2023/12/24 10:48:18;;;;;;;22.07;2.97;;;;;;;;;;6304469;22;20179;-77
2023/12/24 10:50:45;;;;;;;21.23;3.77;;;;;;;;;;6304484;22;20170;-77
2023/12/24 10:53:14;;;;;;;19.90;3.90;;;;;;;;;;6302577;22;20252;-76
2023/12/24 10:55:43;;;;;;;17.63;3.53;;;;;;;;;;6302032;22;20198;-76
2023/12/24 10:58:13;;;;;;;19.17;3.10;;;;;;;;;;6303794;22;20241;-75
2023/12/24 11:00:40;;;;;;;18.53;3.50;;;;;;;;;;6303653;22;20197;-76
2023/12/24 11:03:07;;;;;;;17.37;3.20;;;;;;;;;;6303397;22;20170;-76
2023/12/24 11:05:50;;;;;;;14.37;3.03;;;;;;;;;;6302910;22;20170;-77
2023/12/24 11:08:35;;;;;;;15.07;3.10;;;;;;;;;;6303108;22;20249;-77
2023/12/24 11:11:06;;;;;;;16.07;3.37;;;;;;;;;;6304731;22;20174;-76
2023/12/24 11:13:48;;;;;;;21.50;3.97;;;;;;;;;;6301778;22;20170;-77
2023/12/24 11:16:30;;;;;;;24.13;4.23;;;;;;;;;;6305971;22;20254;-76
2023/12/24 11:18:58;;;;;;;17.73;3.23;;;;;;;;;;6305841;22;20177;-76
2023/12/24 11:21:25;;;;;;;14.80;3.20;;;;;;;;;;6306102;22;20268;-77
2023/12/24 11:24:07;;;;;;;23.47;4.00;;;;;;;;;;6304716;22;20691;-75
2023/12/24 11:26:36;;;;;;;19.10;4.07;;;;;;;;;;6305073;22;20197;-75
2023/12/24 11:29:04;;;;;;;17.07;3.13;;;;;;;;;;6304514;22;20556;-75
2023/12/24 11:31:31;;;;;;;19.10;3.60;;;;;;;;;;6305073;22;20166;-75
2023/12/24 11:33:59;;;;;;;21.27;3.40;;;;;;;;;;6305531;22;20169;-76
2023/12/24 11:36:27;;;;;;;12.47;3.50;;;;;;;;;;6306114;22;20197;-76
2023/12/24 11:38:57;;;;;;;24.40;3.63;;;;;;;;;;6306394;22;20554;-76
2023/12/24 11:41:25;;;;;;;19.57;3.70;;;;;;;;;;6306211;22;20644;-76
2023/12/24 11:43:54;;;;;;;15.80;3.80;;;;;;;;;;6305943;22;20204;-77
2023/12/24 11:46:22;;;;;;;20.85;4.18;;;;;;;;;;6306525;22;20173;-76
2023/12/24 11:48:49;;;;;;;19.02;3.25;;;;;;;;;;6304010;22;20169;-76
2023/12/24 11:51:17;;;;;;;17.60;3.80;;;;;;;;;;6304449;22;20260;-76
2023/12/24 11:53:45;;;;;;;18.05;3.75;;;;;;;;;;6304706;22;20219;-77
2023/12/24 11:56:13;;;;;;;18.63;3.40;;;;;;;;;;6305523;22;20202;-76
2023/12/24 11:58:41;;;;;;;15.73;3.20;;;;;;;;;;6305390;22;20198;-76
2023/12/24 12:01:11;;;;;;;16.92;3.42;;;;;;;;;;6305656;22;20605;-76
2023/12/24 12:03:38;;;;;;;19.63;4.32;;;;;;;;;;6305788;22;20173;-76
2023/12/24 12:06:06;;;;;;;11.27;2.40;;;;;;;;;;6305966;22;20515;-76
2023/12/24 12:08:34;;;;;;;18.02;3.15;;;;;;;;;;6306439;22;20220;-76
2023/12/24 12:11:01;;;;;;;13.48;3.20;;;;;;;;;;6311535;22;20201;-79
2023/12/24 12:13:29;;;;;;;17.08;3.78;;;;;;;;;;6309035;22;20169;-76
2023/12/24 12:15:57;;;;;;;16.05;3.20;;;;;;;;;;6305906;22;20300;-77
2023/12/24 12:18:25;;;;;;;20.25;3.15;;;;;;;;;;6306941;22;20200;-77
2023/12/24 12:20:53;;;;;;;21.20;3.58;;;;;;;;;;6305481;22;20189;-76
2023/12/24 12:23:20;;;;;;;18.60;3.08;;;;;;;;;;6306111;22;20252;-76
2023/12/24 12:25:47;;;;;;;18.38;3.50;;;;;;;;;;6304923;22;20185;-76
2023/12/24 12:28:14;;;;;;;15.00;3.17;;;;;;;;;;6305262;22;20245;-76
2023/12/24 12:30:41;;;;;;;17.08;3.63;;;;;;;;;;6305492;22;20170;-76
2023/12/24 12:33:09;;;;;;;16.77;3.40;;;;;;;;;;6305320;22;20170;-77
2023/12/24 12:35:37;;;;;;;14.68;3.35;;;;;;;;;;6305490;22;20225;-75
2023/12/24 12:38:05;;;;;;;19.60;3.83;;;;;;;;;;6305306;22;20166;-77
2023/12/24 12:40:32;;;;;;;17.48;2.95;;;;;;;;;;6304725;22;20169;-76
2023/12/24 12:42:59;;;;;;;17.33;3.63;;;;;;;;;;6304006;22;20588;-77
2023/12/24 12:45:26;;;;;;;18.10;3.42;;;;;;;;;;6304932;22;20193;-76
2023/12/24 12:47:53;;;;;;;18.50;3.63;;;;;;;;;;6304222;22;20193;-76
2023/12/24 12:50:21;;;;;;;13.82;3.30;;;;;;;;;;6304668;22;20166;-77
2023/12/24 12:52:54;;;;;;;15.45;3.25;;;;;;;;;;6305102;22;20165;-76
2023/12/24 12:55:22;;;;;;;16.95;3.75;;;;;;;;;;6302064;22;20770;-76
2023/12/24 12:57:49;;;;;;;18.05;3.92;;;;;;;;;;6303452;22;20174;-76
2023/12/24 13:00:20;;;;;;;21.05;3.60;;;;;;;;;;6305077;22;20170;-76
2023/12/24 13:02:47;;;;;;;17.55;3.55;;;;;;;;;;6305139;22;20252;-77
2023/12/24 13:05:24;;;;;;;18.50;3.65;;;;;;;;;;6303702;22;20174;-75
2023/12/24 13:07:55;;;;;;;15.70;3.17;;;;;;;;;;6304209;22;20169;-76
2023/12/24 13:10:29;;;;;;;17.42;3.00;;;;;;;;;;6304815;22;20227;-76
2023/12/24 13:13:12;;;;;;;16.67;3.13;;;;;;;;;;6303782;22;20166;-77
2023/12/24 13:15:43;;;;;;;21.83;3.15;;;;;;;;;;6304517;22;20201;-77
2023/12/24 13:18:20;;;;;;;20.08;3.28;;;;;;;;;;6299670;22;20170;-77
2023/12/24 13:20:49;;;;;;;14.45;2.80;;;;;;;;;;6303550;22;20173;-76
2023/12/24 13:23:19;;;;;;;20.10;3.08;;;;;;;;;;6304386;22;20252;-76
2023/12/24 13:25:46;;;;;;;16.95;3.22;;;;;;;;;;6304018;22;20178;-77
2023/12/24 13:28:14;;;;;;;12.88;3.15;;;;;;;;;;6304824;22;20249;-76
2023/12/24 13:30:43;;;;;;;16.52;3.05;;;;;;;;;;6304157;22;20260;-76
2023/12/24 13:33:10;;;;;;;14.75;2.95;;;;;;;;;;6305007;22;20170;-76
2023/12/24 13:35:39;;;;;;;12.88;3.10;;;;;;;;;;6303697;22;20170;-77
2023/12/24 13:38:09;;;;;;;14.98;3.58;;;;;;;;;;6302739;22;20172;-76
2023/12/24 13:40:38;;;;;;;13.38;3.03;;;;;;;;;;6304682;22;20177;-76
2023/12/24 13:43:05;;;;;;;15.48;3.25;;;;;;;;;;6304456;22;20170;-76
2023/12/24 13:45:32;;;;;;;14.13;2.65;;;;;;;;;;6304601;22;20205;-77
2023/12/24 13:48:00;;;;;;;16.48;3.30;;;;;;;;;;6304962;22;20174;-77
2023/12/24 13:50:27;;;;;;;17.42;3.97;;;;;;;;;;6305035;22;20557;-76
2023/12/24 13:52:54;;;;;;;13.13;3.50;;;;;;;;;;6304656;22;20169;-77
2023/12/24 13:55:22;;;;;;;14.50;3.05;;;;;;;;;;6305308;22;20170;-76
2023/12/24 13:57:50;;;;;;;15.98;2.90;;;;;;;;;;6304206;22;20236;-77
2023/12/24 14:00:18;;;;;;;14.95;3.08;;;;;;;;;;6304287;22;20193;-76
2023/12/24 14:02:46;;;;;;;14.13;3.28;;;;;;;;;;6304592;22;20170;-77
2023/12/24 14:05:13;;;;;;;16.15;2.90;;;;;;;;;;6302900;22;20497;-76
2023/12/24 14:07:43;;;;;;;11.43;2.75;;;;;;;;;;6303924;22;20173;-76
2023/12/24 14:10:11;;;;;;;17.70;3.42;;;;;;;;;;6304453;22;20811;-75
2023/12/24 14:12:38;;;;;;;17.02;2.95;;;;;;;;;;6303784;22;20284;-76
2023/12/24 14:15:07;;;;;;;16.05;3.60;;;;;;;;;;6303677;22;20193;-76
2023/12/24 14:17:35;;;;;;;18.15;2.92;;;;;;;;;;6305157;22;20280;-76
2023/12/24 14:20:04;;;;;;;15.38;3.40;;;;;;;;;;6304601;22;20205;-76
2023/12/24 14:22:31;;;;;;;17.27;2.97;;;;;;;;;;6304926;22;20169;-76
2023/12/24 14:24:59;;;;;;;14.38;3.60;;;;;;;;;;6305115;22;20166;-75
2023/12/24 14:27:26;;;;;;;18.38;3.03;;;;;;;;;;6303250;22;20176;-78
2023/12/24 14:29:54;;;;;;;20.83;3.78;;;;;;;;;;6303202;22;20277;-76
2023/12/24 14:32:22;;;;;;;16.55;3.53;;;;;;;;;;6303409;22;20702;-80
2023/12/24 14:34:50;;;;;;;15.88;2.97;;;;;;;;;;6305106;22;20193;-81